Time;durP1;ratioP1;P1;durP2;ratioP2;P2;SDS_P1;SDS_P2;PMS_P1;PMS_P2;Temp;Humidity;BMP_temperature;BMP_pressure;BME280_temperature;BME280_humidity;BME280_pressure;Samples;Min_cycle;Max_cycle;Signal;HPM_P1;HPM_P2
2024/01/28 00:00:59;;;;;;;16.02;9.30;;;;;;;-0.32;100.00;103325.06;4992279;28;20123;-75
2024/01/28 00:03:26;;;;;;;20.63;10.38;;;;;;;-0.32;100.00;103319.06;4992511;28;20051;-75
2024/01/28 00:05:53;;;;;;;22.40;10.25;;;;;;;-0.33;100.00;103318.31;4992428;28;20533;-75
2024/01/28 00:08:19;;;;;;;18.10;10.75;;;;;;;-0.37;100.00;103325.22;4991982;28;20106;-75
2024/01/28 00:10:46;;;;;;;15.50;9.85;;;;;;;-0.43;100.00;103321.97;4992163;28;20412;-76
2024/01/28 00:13:12;;;;;;;16.73;9.57;;;;;;;-0.45;100.00;103315.50;4992704;28;20149;-75
2024/01/28 00:15:39;;;;;;;16.10;9.77;;;;;;;-0.52;100.00;103309.91;4992104;28;20160;-76
2024/01/28 00:18:06;;;;;;;28.23;10.20;;;;;;;-0.48;100.00;103309.03;4992927;28;20138;-75
2024/01/28 00:20:33;;;;;;;20.83;10.73;;;;;;;-0.49;100.00;103296.22;4991991;28;20047;-75
2024/01/28 00:22:59;;;;;;;19.35;9.95;;;;;;;-0.49;100.00;103304.09;4992563;28;20043;-75
2024/01/28 00:25:26;;;;;;;16.85;9.10;;;;;;;-0.48;100.00;103314.25;4992139;28;20058;-75
2024/01/28 00:27:52;;;;;;;18.30;10.15;;;;;;;-0.50;100.00;103302.53;4995040;28;20549;-76
2024/01/28 00:30:19;;;;;;;18.00;10.10;;;;;;;-0.55;100.00;103306.06;4995607;28;20126;-76
2024/01/28 00:32:46;;;;;;;18.88;9.85;;;;;;;-0.55;100.00;103302.66;4995833;28;20122;-76
2024/01/28 00:35:12;;;;;;;20.10;9.75;;;;;;;-0.56;100.00;103312.34;4995590;28;20043;-76
2024/01/28 00:37:39;;;;;;;16.83;10.15;;;;;;;-0.59;100.00;103309.56;4995984;28;20039;-76
2024/01/28 00:40:06;;;;;;;14.40;9.40;;;;;;;-0.61;100.00;103312.47;4995272;28;20058;-76
2024/01/28 00:42:33;;;;;;;15.68;8.98;;;;;;;-0.60;100.00;103305.41;4995567;28;20078;-75
2024/01/28 00:44:59;;;;;;;20.98;10.43;;;;;;;-0.60;100.00;103308.78;4995536;28;20129;-75
2024/01/28 00:47:26;;;;;;;14.18;9.32;;;;;;;-0.60;100.00;103308.78;4995029;28;20074;-75
2024/01/28 00:49:52;;;;;;;19.35;9.50;;;;;;;-0.64;100.00;103312.31;4995299;28;20054;-75
2024/01/28 00:52:19;;;;;;;14.52;9.50;;;;;;;-0.71;100.00;103303.03;4995905;28;20042;-75
2024/01/28 00:54:46;;;;;;;13.48;8.38;;;;;;;-0.67;100.00;103306.59;4995910;28;20057;-75
2024/01/28 00:57:12;;;;;;;16.13;9.15;;;;;;;-0.69;100.00;103295.66;4994522;28;20154;-75
2024/01/28 00:59:39;;;;;;;17.15;9.30;;;;;;;-0.68;100.00;103294.59;4995521;28;20051;-75
2024/01/28 01:02:06;;;;;;;23.38;10.60;;;;;;;-0.69;100.00;103294.88;4995280;28;20046;-75
2024/01/28 01:04:32;;;;;;;18.08;8.77;;;;;;;-0.72;100.00;103290.25;4994971;28;20534;-75
2024/01/28 01:06:59;;;;;;;15.35;9.23;;;;;;;-0.75;100.00;103299.47;4995752;28;20051;-75
2024/01/28 01:09:26;;;;;;;13.98;8.43;;;;;;;-0.74;100.00;103297.63;4994989;28;20042;-75
2024/01/28 01:11:52;;;;;;;17.30;9.48;;;;;;;-0.74;100.00;103289.78;4994952;28;20046;-75
2024/01/28 01:14:22;;;;;;;16.98;9.02;;;;;;;-0.73;100.00;103288.72;4995039;28;20187;-75
2024/01/28 01:16:49;;;;;;;16.88;9.30;;;;;;;-0.76;100.00;103284.84;4991517;28;20053;-76
2024/01/28 01:19:15;;;;;;;17.38;9.55;;;;;;;-0.82;100.00;103280.06;4991570;28;20150;-75
2024/01/28 01:21:42;;;;;;;16.70;8.98;;;;;;;-0.85;100.00;103267.59;4994954;28;20046;-75
2024/01/28 01:24:08;;;;;;;17.85;8.95;;;;;;;-0.85;100.00;103265.75;4995178;28;20126;-75
2024/01/28 01:26:35;;;;;;;18.17;9.35;;;;;;;-0.82;100.00;103256.53;4994187;28;20051;-75
2024/01/28 01:29:02;;;;;;;14.25;8.73;;;;;;;-0.89;100.00;103258.78;4995385;28;20049;-75
2024/01/28 01:31:28;;;;;;;15.05;8.52;;;;;;;-0.97;100.00;103257.66;4994845;28;20035;-76
2024/01/28 01:33:55;;;;;;;16.05;8.40;;;;;;;-1.02;100.00;103258.56;4994958;28;20077;-75
2024/01/28 01:36:22;;;;;;;16.70;9.15;;;;;;;-0.99;100.00;103251.97;4995075;28;20049;-76
2024/01/28 01:38:49;;;;;;;16.95;9.35;;;;;;;-0.96;100.00;103255.81;4994296;28;20047;-75
2024/01/28 01:41:15;;;;;;;16.73;9.43;;;;;;;-1.04;100.00;103250.25;4994383;28;20125;-75
2024/01/28 01:43:42;;;;;;;12.55;8.20;;;;;;;-1.05;100.00;103255.78;4995049;28;20053;-75
2024/01/28 01:46:10;;;;;;;16.13;9.38;;;;;;;-1.12;100.00;103256.19;4994948;28;20135;-76
2024/01/28 01:48:37;;;;;;;16.38;9.23;;;;;;;-1.16;100.00;103257.06;4994528;28;20077;-75
2024/01/28 01:51:06;;;;;;;15.98;9.10;;;;;;;-1.17;100.00;103256.31;4994839;28;20038;-75
2024/01/28 01:53:34;;;;;;;17.60;9.10;;;;;;;-1.19;100.00;103250.59;4994381;28;20054;-75
2024/01/28 01:56:02;;;;;;;14.82;8.88;;;;;;;-1.16;100.00;103246.63;4994431;28;20054;-75
2024/01/28 01:58:29;;;;;;;14.60;8.30;;;;;;;-1.12;100.00;103245.72;4994843;28;20853;-75
2024/01/28 02:00:56;;;;;;;16.42;8.43;;;;;;;-1.10;100.00;103246.19;4993598;28;20121;-75
2024/01/28 02:03:23;;;;;;;20.70;8.57;;;;;;;-1.17;100.00;103239.84;4993971;28;20051;-75
2024/01/28 02:05:50;;;;;;;16.90;8.45;;;;;;;-1.15;100.00;103248.94;4991859;28;20049;-75
2024/01/28 02:08:17;;;;;;;14.68;9.25;;;;;;;-1.22;100.00;103251.22;4994830;28;20490;-75
2024/01/28 02:10:45;;;;;;;18.30;8.90;;;;;;;-1.27;100.00;103248.72;4994241;28;20137;-75
2024/01/28 02:13:12;;;;;;;16.08;8.70;;;;;;;-1.30;100.00;103245.94;4995177;28;20046;-75
2024/01/28 02:15:38;;;;;;;14.90;8.88;;;;;;;-1.31;100.00;103236.53;4994562;28;20137;-75
2024/01/28 02:18:06;;;;;;;13.95;8.98;;;;;;;-1.33;100.00;103234.22;4995121;28;20076;-75
2024/01/28 02:20:32;;;;;;;17.08;8.82;;;;;;;-1.37;100.00;103231.44;4994549;28;20116;-75
2024/01/28 02:22:59;;;;;;;13.18;8.85;;;;;;;-1.37;100.00;103220.22;4994254;28;20047;-75
2024/01/28 02:25:26;;;;;;;13.10;8.43;;;;;;;-1.36;100.00;103216.53;4993752;28;20051;-75
2024/01/28 02:27:55;;;;;;;15.35;8.55;;;;;;;-1.32;100.00;103217.47;4990438;28;20038;-76
2024/01/28 02:30:21;;;;;;;11.95;8.18;;;;;;;-1.31;100.00;103218.25;4989281;28;20605;-76
2024/01/28 02:32:49;;;;;;;15.93;9.27;;;;;;;-1.38;100.00;103211.59;4994390;28;20101;-76
2024/01/28 02:35:17;;;;;;;15.52;7.70;;;;;;;-1.41;100.00;103206.19;4993512;28;20043;-76
2024/01/28 02:37:43;;;;;;;13.60;7.47;;;;;;;-1.37;100.00;103201.91;4994173;28;20051;-76
2024/01/28 02:40:10;;;;;;;12.88;8.05;;;;;;;-1.36;100.00;103204.22;4993883;28;20046;-76
2024/01/28 02:42:37;;;;;;;13.43;7.40;;;;;;;-1.33;100.00;103205.47;4994056;28;20529;-76
2024/01/28 02:45:05;;;;;;;17.58;8.05;;;;;;;-1.31;100.00;103205.19;4994024;28;20042;-76
2024/01/28 02:47:32;;;;;;;15.02;7.93;;;;;;;-1.37;100.00;103201.91;4992957;28;20051;-75
2024/01/28 02:49:58;;;;;;;12.35;7.63;;;;;;;-1.43;100.00;103203.88;4993989;28;20042;-75
2024/01/28 02:52:25;;;;;;;15.38;7.78;;;;;;;-1.41;100.00;103214.81;4993289;28;20530;-75
2024/01/28 02:54:51;;;;;;;14.35;8.13;;;;;;;-1.43;100.00;103213.56;4993856;28;20050;-75
2024/01/28 02:57:18;;;;;;;10.88;7.30;;;;;;;-1.44;100.00;103219.84;4993191;28;20051;-75
2024/01/28 02:59:44;;;;;;;11.65;7.53;;;;;;;-1.47;100.00;103212.59;4992840;28;20062;-75
2024/01/28 03:02:11;;;;;;;16.83;7.93;;;;;;;-1.45;100.00;103215.69;4991632;28;20046;-75
2024/01/28 03:04:38;;;;;;;14.48;7.50;;;;;;;-1.47;100.00;103207.38;4993215;28;20066;-75
2024/01/28 03:07:05;;;;;;;15.38;8.05;;;;;;;-1.52;100.00;103199.66;4994167;28;20047;-75
2024/01/28 03:09:31;;;;;;;11.23;7.47;;;;;;;-1.56;100.00;103199.47;4992958;28;20102;-75
2024/01/28 03:11:58;;;;;;;17.73;7.20;;;;;;;-1.58;100.00;103193.00;4993056;28;20054;-75
2024/01/28 03:14:26;;;;;;;13.00;7.60;;;;;;;-1.59;100.00;103201.91;4971560;28;20157;-75
2024/01/28 03:16:52;;;;;;;10.93;6.95;;;;;;;-1.58;100.00;103204.22;4993650;28;20081;-75
2024/01/28 03:19:19;;;;;;;12.80;6.78;;;;;;;-1.58;100.00;103203.44;4992394;28;20046;-75
2024/01/28 03:21:46;;;;;;;13.32;7.50;;;;;;;-1.63;100.00;103195.75;4993840;28;20051;-75
2024/01/28 03:24:12;;;;;;;16.08;7.00;;;;;;;-1.65;100.00;103195.25;4993018;28;20045;-75
2024/01/28 03:26:39;;;;;;;14.18;7.85;;;;;;;-1.65;100.00;103197.88;4992935;28;20042;-75
2024/01/28 03:29:06;;;;;;;14.00;7.85;;;;;;;-1.70;100.00;103188.31;4993697;28;20047;-75
2024/01/28 03:31:33;;;;;;;19.77;7.68;;;;;;;-1.74;100.00;103188.13;4996552;28;20035;-79
2024/01/28 03:34:00;;;;;;;10.75;6.32;;;;;;;-1.79;100.00;103188.25;4988319;28;20054;-80
2024/01/28 03:36:27;;;;;;;12.90;7.50;;;;;;;-1.78;100.00;103181.19;4988496;28;20066;-81
2024/01/28 03:38:54;;;;;;;9.23;6.50;;;;;;;-1.75;100.00;103175.38;5007056;28;20039;-78
2024/01/28 03:41:21;;;;;;;11.57;7.20;;;;;;;-1.77;100.00;103174.88;5005255;28;20047;-79
2024/01/28 03:43:48;;;;;;;11.48;7.53;;;;;;;-1.81;100.00;103166.09;5002722;28;20043;-80
2024/01/28 03:46:15;;;;;;;14.80;7.35;;;;;;;-1.79;100.00;103166.56;5000766;28;20047;-80
2024/01/28 03:48:42;;;;;;;14.85;7.35;;;;;;;-1.77;100.00;103167.06;5002898;28;20058;-80
2024/01/28 03:51:08;;;;;;;13.57;7.93;;;;;;;-1.75;100.00;103164.91;4984991;28;20031;-79
2024/01/28 03:53:35;;;;;;;10.27;6.55;;;;;;;-1.75;100.00;103164.91;5001793;28;20050;-79
2024/01/28 03:56:02;;;;;;;15.60;8.02;;;;;;;-1.76;100.00;103169.38;5001777;28;20062;-79
2024/01/28 03:58:29;;;;;;;15.57;7.60;;;;;;;-1.76;100.00;103163.38;5002057;28;20073;-79
2024/01/28 04:00:56;;;;;;;13.00;7.13;;;;;;;-1.78;100.00;103162.91;5002898;28;20039;-81
2024/01/28 04:03:23;;;;;;;14.23;7.38;;;;;;;-1.83;100.00;103161.16;5004625;28;20038;-80
2024/01/28 04:05:51;;;;;;;10.80;7.25;;;;;;;-1.87;100.00;103152.38;4987227;28;20059;-80
2024/01/28 04:08:17;;;;;;;8.32;6.40;;;;;;;-1.85;100.00;103149.47;5001968;28;20061;-81
2024/01/28 04:10:45;;;;;;;10.43;6.65;;;;;;;-1.80;100.00;103149.38;5003984;28;20237;-81
2024/01/28 04:13:12;;;;;;;14.95;6.88;;;;;;;-1.82;100.00;103152.28;4987912;28;20062;-81
2024/01/28 04:15:39;;;;;;;14.88;7.55;;;;;;;-1.80;100.00;103144.91;5003504;28;20051;-82
2024/01/28 04:18:05;;;;;;;10.18;7.05;;;;;;;-1.80;100.00;103142.31;5004198;28;20054;-79
2024/01/28 04:20:32;;;;;;;13.55;6.53;;;;;;;-1.79;100.00;103136.00;4984544;28;20561;-80
2024/01/28 04:22:59;;;;;;;19.13;7.15;;;;;;;-1.78;100.00;103134.19;5005422;28;20078;-81
2024/01/28 04:25:30;;;;;;;18.15;7.15;;;;;;;-1.77;100.00;103135.72;5005006;28;20050;-81
2024/01/28 04:28:00;;;;;;;10.90;6.50;;;;;;;-1.82;100.00;103134.00;5004274;28;20062;-81
2024/01/28 04:30:26;;;;;;;11.75;6.90;;;;;;;-1.83;100.00;103132.44;5003625;28;20166;-80
2024/01/28 04:32:53;;;;;;;10.40;6.90;;;;;;;-1.84;100.00;103123.06;5004695;28;20050;-81
2024/01/28 04:35:20;;;;;;;12.70;7.18;;;;;;;-1.90;100.00;103123.47;5004272;28;20043;-80
2024/01/28 04:37:46;;;;;;;12.23;6.53;;;;;;;-1.94;100.00;103119.91;4982014;28;20057;-75
2024/01/28 04:40:13;;;;;;;12.93;6.82;;;;;;;-1.90;100.00;103123.47;4995394;28;20073;-74
2024/01/28 04:42:40;;;;;;;12.57;7.18;;;;;;;-1.86;100.00;103125.22;4995877;28;20517;-74
2024/01/28 04:45:08;;;;;;;11.00;6.95;;;;;;;-1.88;100.00;103127.34;4996018;28;20050;-74
2024/01/28 04:47:36;;;;;;;10.48;6.50;;;;;;;-1.92;100.00;103121.16;4992033;28;20042;-75
2024/01/28 04:50:04;;;;;;;17.73;6.88;;;;;;;-1.93;100.00;103116.25;4996461;28;20047;-74
2024/01/28 04:52:34;;;;;;;10.35;6.95;;;;;;;-1.92;100.00;103118.56;4995013;28;20418;-74
2024/01/28 04:55:00;;;;;;;9.75;6.45;;;;;;;-1.89;100.00;103112.75;4995766;28;20134;-74
2024/01/28 04:57:28;;;;;;;13.60;6.65;;;;;;;-1.88;100.00;103116.13;4994687;28;20102;-75
2024/01/28 04:59:54;;;;;;;12.63;7.18;;;;;;;-1.87;100.00;103112.44;4995960;28;20046;-75
2024/01/28 05:02:21;;;;;;;12.88;7.88;;;;;;;-1.89;100.00;103114.59;4995204;28;20540;-75
2024/01/28 05:04:47;;;;;;;11.85;7.28;;;;;;;-1.89;100.00;103107.53;4995468;28;20494;-75
2024/01/28 05:07:16;;;;;;;13.05;6.97;;;;;;;-1.89;100.00;103104.91;4995592;28;20370;-74
2024/01/28 05:09:42;;;;;;;12.90;6.70;;;;;;;-1.88;100.00;103103.06;4994931;28;20121;-74
2024/01/28 05:12:09;;;;;;;10.20;6.22;;;;;;;-1.86;100.00;103099.09;4977608;28;20051;-74
2024/01/28 05:14:35;;;;;;;15.40;6.03;;;;;;;-1.84;100.00;103098.81;4991983;28;20069;-74
2024/01/28 05:17:02;;;;;;;14.05;6.00;;;;;;;-1.81;100.00;103101.59;4995632;28;20568;-74
2024/01/28 05:19:29;;;;;;;12.57;6.07;;;;;;;-1.78;100.00;103103.63;4995037;28;20055;-74
2024/01/28 05:21:56;;;;;;;12.57;6.47;;;;;;;-1.78;100.00;103103.63;4996329;28;20051;-74
2024/01/28 05:24:22;;;;;;;21.00;6.43;;;;;;;-1.78;100.00;103098.38;4994613;28;20513;-74
2024/01/28 05:26:49;;;;;;;11.00;6.10;;;;;;;-1.73;100.00;103100.88;4995090;28;20044;-75
2024/01/28 05:29:15;;;;;;;12.38;5.60;;;;;;;-1.70;100.00;103095.06;4995429;28;20106;-74
2024/01/28 05:31:42;;;;;;;13.93;6.13;;;;;;;-1.65;100.00;103082.94;4995653;28;20053;-73
2024/01/28 05:34:08;;;;;;;11.13;5.93;;;;;;;-1.62;100.00;103077.13;4995022;28;20594;-73
2024/01/28 05:36:35;;;;;;;10.32;6.25;;;;;;;-1.61;100.00;103076.06;4994385;28;20038;-74
2024/01/28 05:39:02;;;;;;;18.73;6.57;;;;;;;-1.60;100.00;103067.16;4995485;28;20047;-74
2024/01/28 05:41:28;;;;;;;9.77;5.82;;;;;;;-1.60;100.00;103060.06;4995224;28;20061;-74
2024/01/28 05:43:58;;;;;;;10.45;6.15;;;;;;;-1.57;100.00;103051.63;4996085;28;20047;-74
2024/01/28 05:46:24;;;;;;;10.30;5.95;;;;;;;-1.51;100.00;103054.88;4994808;28;20039;-74
2024/01/28 05:48:52;;;;;;;11.30;6.07;;;;;;;-1.47;100.00;103042.78;4995286;28;20511;-74
2024/01/28 05:51:20;;;;;;;15.18;6.55;;;;;;;-1.44;100.00;103042.94;4994961;28;20558;-74
2024/01/28 05:53:46;;;;;;;17.80;6.00;;;;;;;-1.40;100.00;103035.28;4994441;28;20503;-74
2024/01/28 05:56:13;;;;;;;9.60;6.65;;;;;;;-1.38;100.00;103035.75;4995274;28;20047;-74
2024/01/28 05:58:39;;;;;;;13.98;6.53;;;;;;;-1.37;100.00;103030.22;4995274;28;20511;-75
2024/01/28 06:01:08;;;;;;;13.80;6.38;;;;;;;-1.36;100.00;103026.53;4994773;28;20046;-74
2024/01/28 06:03:36;;;;;;;13.15;6.35;;;;;;;-1.35;100.00;103024.69;4994203;28;20042;-75
2024/01/28 06:06:04;;;;;;;12.30;6.40;;;;;;;-1.34;100.00;103023.63;4995147;28;20440;-74
2024/01/28 06:08:31;;;;;;;10.90;5.38;;;;;;;-1.33;100.00;103027.78;4993436;28;20094;-74
2024/01/28 06:10:57;;;;;;;8.88;6.57;;;;;;;-1.31;100.00;103023.03;4994233;28;20754;-74
2024/01/28 06:13:24;;;;;;;12.05;6.75;;;;;;;-1.30;100.00;103021.94;4994399;28;20070;-74
2024/01/28 06:15:52;;;;;;;11.23;6.13;;;;;;;-1.32;100.00;103018.88;4994966;28;20042;-74
2024/01/28 06:18:19;;;;;;;15.88;6.97;;;;;;;-1.31;100.00;103019.63;4993907;28;20047;-74
2024/01/28 06:20:46;;;;;;;9.88;6.22;;;;;;;-1.33;100.00;103006.88;4976906;28;20117;-74
2024/01/28 06:23:13;;;;;;;14.05;6.50;;;;;;;-1.34;100.00;103013.16;4994452;28;20118;-74
2024/01/28 06:25:40;;;;;;;12.13;6.22;;;;;;;-1.33;100.00;103003.50;4992812;28;20042;-74
2024/01/28 06:28:06;;;;;;;21.58;6.88;;;;;;;-1.30;100.00;103021.19;4994601;28;20047;-74
2024/01/28 06:30:33;;;;;;;11.48;6.40;;;;;;;-1.30;100.00;103011.50;4994273;28;20133;-74
2024/01/28 06:33:00;;;;;;;12.40;7.03;;;;;;;-1.31;100.00;103009.19;4993819;28;20042;-74
2024/01/28 06:35:26;;;;;;;11.55;6.65;;;;;;;-1.29;100.00;103007.81;4993891;28;20050;-74
2024/01/28 06:37:53;;;;;;;15.57;7.05;;;;;;;-1.27;100.00;103010.13;4994362;28;20051;-74
2024/01/28 06:40:20;;;;;;;11.80;7.05;;;;;;;-1.27;100.00;103000.44;4993985;28;20049;-74
2024/01/28 06:42:46;;;;;;;16.85;7.05;;;;;;;-1.27;100.00;103003.06;4994731;28;20529;-74
2024/01/28 06:45:13;;;;;;;13.27;7.10;;;;;;;-1.26;100.00;102999.38;4993768;28;20050;-74
2024/01/28 06:47:40;;;;;;;10.52;6.50;;;;;;;-1.23;100.00;103009.22;4993674;28;20066;-74
2024/01/28 06:50:07;;;;;;;14.73;6.05;;;;;;;-1.21;100.00;103004.44;4994299;28;20054;-74
2024/01/28 06:52:34;;;;;;;14.63;6.25;;;;;;;-1.19;100.00;103006.75;4993499;28;20049;-74
2024/01/28 06:55:00;;;;;;;13.95;6.28;;;;;;;-1.18;100.00;103003.81;4993731;28;20049;-74
2024/01/28 06:57:27;;;;;;;17.25;7.18;;;;;;;-1.17;100.00;103002.75;4992640;28;20094;-73
2024/01/28 06:59:53;;;;;;;10.73;6.45;;;;;;;-1.17;100.00;103000.13;4976345;28;20119;-74
2024/01/28 07:02:24;;;;;;;15.07;7.38;;;;;;;-1.16;100.00;102998.28;4993492;28;20499;-74
2024/01/28 07:04:51;;;;;;;14.90;6.40;;;;;;;-1.16;100.00;102998.28;4993703;28;20043;-74
2024/01/28 07:07:18;;;;;;;19.90;5.93;;;;;;;-1.15;100.00;102994.59;4993662;28;20055;-74
2024/01/28 07:09:45;;;;;;;8.52;5.97;;;;;;;-1.14;100.00;102993.53;4989834;28;20063;-76
2024/01/28 07:12:11;;;;;;;8.85;6.40;;;;;;;-1.16;100.00;102995.69;4992787;28;20053;-74
2024/01/28 07:14:38;;;;;;;16.60;6.60;;;;;;;-1.16;100.00;103003.53;4992722;28;20073;-74
2024/01/28 07:17:05;;;;;;;10.38;5.97;;;;;;;-1.14;100.00;103006.59;4993072;28;20054;-74
2024/01/28 07:19:31;;;;;;;10.13;6.38;;;;;;;-1.13;100.00;103015.97;4992760;28;20038;-75
2024/01/28 07:21:58;;;;;;;14.93;7.22;;;;;;;-1.10;100.00;103010.91;4993512;28;20090;-74
2024/01/28 07:24:24;;;;;;;14.50;7.22;;;;;;;-1.08;100.00;103021.06;4993178;28;20043;-74
2024/01/28 07:26:51;;;;;;;14.77;6.85;;;;;;;-1.06;100.00;103022.31;4994287;28;20069;-74
2024/01/28 07:29:18;;;;;;;15.57;6.82;;;;;;;-1.04;100.00;103025.41;4993850;28;20046;-72
2024/01/28 07:31:44;;;;;;;11.50;6.20;;;;;;;-1.03;100.00;103020.94;4992513;28;20053;-74
2024/01/28 07:34:11;;;;;;;13.50;6.63;;;;;;;-0.98;100.00;103022.63;4993544;28;20142;-75
2024/01/28 07:36:38;;;;;;;11.00;6.60;;;;;;;-0.96;100.00;103017.88;4991912;28;20099;-74
2024/01/28 07:39:06;;;;;;;15.05;7.50;;;;;;;-0.96;100.00;103018.66;4993345;28;20482;-74
2024/01/28 07:41:35;;;;;;;15.48;7.07;;;;;;;-0.99;100.00;103016.63;4993449;28;20039;-79
2024/01/28 07:44:04;;;;;;;11.23;6.80;;;;;;;-0.99;100.00;103021.09;5002630;28;20050;-82
2024/01/28 07:46:31;;;;;;;11.10;6.43;;;;;;;-0.98;100.00;103017.41;5003727;28;20091;-81
2024/01/28 07:48:57;;;;;;;14.02;6.55;;;;;;;-0.99;100.00;103015.88;4986864;28;20043;-80
2024/01/28 07:51:25;;;;;;;10.75;6.70;;;;;;;-0.99;100.00;103013.25;5002287;28;20089;-79
2024/01/28 07:53:51;;;;;;;11.98;6.65;;;;;;;-0.98;100.00;103006.94;4981788;28;20046;-79
2024/01/28 07:56:18;;;;;;;12.38;6.50;;;;;;;-0.96;100.00;103008.19;5001568;28;20042;-80
2024/01/28 07:58:44;;;;;;;11.75;6.90;;;;;;;-0.94;100.00;102998.19;4981900;28;20062;-79
2024/01/28 08:01:11;;;;;;;16.15;6.20;;;;;;;-0.93;100.00;102998.97;5000646;28;20050;-79
2024/01/28 08:03:38;;;;;;;15.77;6.63;;;;;;;-0.93;100.00;103002.34;5000118;28;20141;-79
2024/01/28 08:06:07;;;;;;;10.75;6.53;;;;;;;-0.92;100.00;103003.13;5000476;28;20038;-79
2024/01/28 08:08:34;;;;;;;14.32;6.53;;;;;;;-0.90;100.00;102993.91;5001086;28;20087;-80
2024/01/28 08:11:01;;;;;;;9.07;5.90;;;;;;;-0.88;100.00;102989.13;4998665;28;20065;-79
2024/01/28 08:13:29;;;;;;;11.52;5.60;;;;;;;-0.83;100.00;102990.84;4999331;28;20047;-80
2024/01/28 08:16:01;;;;;;;12.50;6.85;;;;;;;-0.76;100.00;102991.13;5000022;28;20114;-80
2024/01/28 08:18:28;;;;;;;8.43;6.07;;;;;;;-0.74;100.00;102983.75;4978623;28;20047;-80
2024/01/28 08:20:56;;;;;;;11.98;6.20;;;;;;;-0.68;100.00;102983.28;4994870;28;20514;-79
2024/01/28 08:23:22;;;;;;;12.50;6.25;;;;;;;-0.67;100.00;102981.44;4989834;28;20258;-79
2024/01/28 08:25:49;;;;;;;13.30;5.97;;;;;;;-0.67;100.00;102976.22;4997325;28;20549;-80
2024/01/28 08:28:15;;;;;;;9.48;6.03;;;;;;;-0.68;100.00;102964.97;4998105;28;20077;-79
2024/01/28 08:30:42;;;;;;;22.38;5.82;;;;;;;-0.67;100.00;102963.91;5000654;28;20046;-81
2024/01/28 08:33:08;;;;;;;10.27;5.82;;;;;;;-0.65;100.00;102965.44;4981301;28;20101;-81
2024/01/28 08:35:37;;;;;;;14.00;6.50;;;;;;;-0.59;100.00;102970.22;4980905;28;20035;-80
2024/01/28 08:38:07;;;;;;;10.35;6.18;;;;;;;-0.53;100.00;102962.97;4999836;28;20054;-81
2024/01/28 08:40:34;;;;;;;17.73;6.38;;;;;;;-0.47;100.00;102964.38;4998765;28;20494;-81
2024/01/28 08:43:04;;;;;;;6.32;5.43;;;;;;;-0.43;100.00;102960.06;4998339;28;20102;-81
2024/01/28 08:45:30;;;;;;;14.50;6.80;;;;;;;-0.37;100.00;102956.94;4998266;28;20992;-81
2024/01/28 08:47:57;;;;;;;14.07;6.25;;;;;;;-0.32;100.00;102963.88;4978044;28;20066;-76
2024/01/28 08:50:24;;;;;;;11.30;6.13;;;;;;;-0.26;100.00;102969.72;4991868;28;20051;-76
2024/01/28 08:52:53;;;;;;;11.98;7.00;;;;;;;-0.23;100.00;102961.22;4996250;28;20057;-77
2024/01/28 08:55:19;;;;;;;11.48;7.13;;;;;;;-0.18;100.00;102954.00;4995798;28;20043;-76
2024/01/28 08:57:46;;;;;;;11.40;6.32;;;;;;;-0.14;100.00;102954.13;4995973;28;20074;-76
2024/01/28 09:00:14;;;;;;;11.27;6.22;;;;;;;-0.08;100.00;102951.03;4995195;28;20043;-76
2024/01/28 09:02:41;;;;;;;12.80;6.88;;;;;;;-0.03;100.00;102945.63;4995378;28;20498;-76
2024/01/28 09:05:08;;;;;;;12.80;6.03;;;;;;;0.02;100.00;102951.75;4995719;28;20078;-77
2024/01/28 09:07:35;;;;;;;10.20;6.68;;;;;;;0.08;100.00;102955.75;4995968;28;20047;-77
2024/01/28 09:10:02;;;;;;;11.73;7.05;;;;;;;0.12;100.00;102956.66;4996004;28;20089;-77
2024/01/28 09:12:28;;;;;;;14.88;7.03;;;;;;;0.16;100.00;102949.72;4995332;28;20133;-76
2024/01/28 09:14:55;;;;;;;25.73;6.15;;;;;;;0.23;100.00;102955.25;4993229;28;20094;-75
2024/01/28 09:17:21;;;;;;;18.73;6.85;;;;;;;0.26;100.00;102955.38;4995026;28;20070;-75
2024/01/28 09:19:48;;;;;;;14.07;7.25;;;;;;;0.34;100.00;102948.56;4995724;28;20058;-75
2024/01/28 09:22:15;;;;;;;9.45;6.65;;;;;;;0.42;100.00;102953.00;4995096;28;20043;-75
2024/01/28 09:24:42;;;;;;;9.27;6.88;;;;;;;0.53;100.00;102945.53;4995656;28;20051;-77
2024/01/28 09:27:10;;;;;;;15.65;7.20;;;;;;;0.58;100.00;102942.75;4996673;28;20051;-78
2024/01/28 09:29:38;;;;;;;14.00;6.70;;;;;;;0.68;100.00;102937.13;4994946;28;20465;-76
2024/01/28 09:32:04;;;;;;;11.80;7.25;;;;;;;0.73;100.00;102933.56;4994899;28;20426;-75
2024/01/28 09:34:31;;;;;;;9.95;6.30;;;;;;;0.78;100.00;102942.00;4994070;28;20081;-75
2024/01/28 09:36:58;;;;;;;9.43;6.07;;;;;;;0.85;100.00;102936.25;4992114;28;20047;-76
2024/01/28 09:39:26;;;;;;;16.23;6.90;;;;;;;0.93;100.00;102932.78;4996677;28;20125;-79
2024/01/28 09:42:04;;;;;;;9.82;5.68;;;;;;;0.99;100.00;102932.28;5000096;28;20192;-80
2024/01/28 09:44:31;;;;;;;11.32;5.68;;;;;;;1.07;100.00;102938.56;4973652;28;20058;-75
2024/01/28 09:46:58;;;;;;;9.13;5.55;;;;;;;1.13;100.00;102936.50;4995088;28;20050;-74
2024/01/28 09:49:27;;;;;;;10.60;6.10;;;;;;;1.16;100.00;102934.03;4995237;28;20047;-74
2024/01/28 09:51:54;;;;;;;7.93;5.93;;;;;;;1.19;100.00;102927.38;4995817;28;20051;-75
2024/01/28 09:54:21;;;;;;;6.95;5.15;;;;;;;1.27;100.00;102937.75;4994968;28;20430;-74
2024/01/28 09:56:49;;;;;;;11.95;6.18;;;;;;;1.36;100.00;102932.44;4994560;28;20051;-75
2024/01/28 09:59:16;;;;;;;8.43;5.80;;;;;;;1.39;100.00;102931.03;4994550;28;20062;-74
2024/01/28 10:01:44;;;;;;;8.52;5.97;;;;;;;1.44;100.00;102936.09;4993676;28;20055;-74
2024/01/28 10:04:10;;;;;;;10.52;6.03;;;;;;;1.51;100.00;102934.47;4994773;28;20110;-73
2024/01/28 10:06:37;;;;;;;9.55;5.85;;;;;;;1.58;100.00;102931.31;4994701;28;20137;-74
2024/01/28 10:09:05;;;;;;;10.80;5.45;;;;;;;1.63;100.00;102937.13;4994963;28;20047;-74
2024/01/28 10:11:31;;;;;;;10.43;5.25;;;;;;;1.75;100.00;102917.22;4990394;28;20058;-74
2024/01/28 10:13:58;;;;;;;17.10;5.60;;;;;;;1.84;100.00;102917.91;4994598;28;20137;-75
2024/01/28 10:16:25;;;;;;;11.02;5.90;;;;;;;1.89;100.00;102909.81;4993945;28;20050;-74
2024/01/28 10:18:53;;;;;;;12.82;5.93;;;;;;;1.91;100.00;102907.63;4994274;28;20051;-75
2024/01/28 10:21:20;;;;;;;12.68;5.85;;;;;;;1.96;100.00;102910.81;4994189;28;20039;-76
2024/01/28 10:23:47;;;;;;;8.90;5.00;;;;;;;2.00;100.00;102900.41;4994902;28;20046;-75
2024/01/28 10:26:15;;;;;;;10.18;6.00;;;;;;;2.05;99.79;102900.19;4994507;28;20189;-75
2024/01/28 10:28:42;;;;;;;9.43;5.70;;;;;;;2.13;99.66;102898.53;4994446;28;20138;-75
2024/01/28 10:31:09;;;;;;;9.73;5.70;;;;;;;2.20;99.26;102898.78;4994534;28;20063;-74
2024/01/28 10:33:36;;;;;;;8.93;5.55;;;;;;;2.25;98.84;102896.69;4994365;28;20046;-74
2024/01/28 10:36:08;;;;;;;8.20;5.38;;;;;;;2.31;98.38;102892.75;4991122;28;20047;-75
2024/01/28 10:38:35;;;;;;;11.02;5.68;;;;;;;2.39;98.10;102898.22;4990565;28;20050;-75
2024/01/28 10:41:02;;;;;;;9.52;5.40;;;;;;;2.44;97.86;102897.97;4993977;28;20080;-75
2024/01/28 10:43:36;;;;;;;8.60;4.97;;;;;;;2.52;97.25;102902.34;4993661;28;20046;-75
2024/01/28 10:46:05;;;;;;;10.68;5.65;;;;;;;2.60;96.85;102898.84;4991181;28;20054;-75
2024/01/28 10:48:34;;;;;;;10.55;5.15;;;;;;;2.68;96.22;102900.56;4990477;28;20463;-76
2024/01/28 10:51:02;;;;;;;11.02;6.32;;;;;;;2.75;95.51;102900.00;4993650;28;20054;-76
2024/01/28 10:53:29;;;;;;;10.00;4.97;;;;;;;2.82;95.01;102895.69;4994058;28;20043;-75
2024/01/28 10:55:56;;;;;;;8.55;5.57;;;;;;;2.91;94.27;102890.31;4994165;28;20514;-75
2024/01/28 10:58:24;;;;;;;7.18;6.07;;;;;;;2.94;94.07;102887.00;4994259;28;20430;-75
2024/01/28 11:00:51;;;;;;;14.13;6.05;;;;;;;3.00;93.61;102894.34;4994005;28;20130;-75
2024/01/28 11:03:18;;;;;;;6.55;5.05;;;;;;;3.06;92.60;102883.56;4994584;28;20517;-75
2024/01/28 11:05:46;;;;;;;14.60;5.70;;;;;;;3.10;92.30;102884.44;4993423;28;20039;-74
2024/01/28 11:08:13;;;;;;;11.02;5.53;;;;;;;3.16;91.97;102873.34;4994063;28;20046;-76
2024/01/28 11:10:40;;;;;;;9.15;5.00;;;;;;;3.19;91.35;102880.56;4993487;28;20109;-76